Time;durP1;ratioP1;P1;durP2;ratioP2;P2;SDS_P1;SDS_P2;PMS_P1;PMS_P2;Temp;Humidity;BMP_temperature;BMP_pressure;BME280_temperature;BME280_humidity;BME280_pressure;Samples;Min_cycle;Max_cycle;Signal;HPM_P1;HPM_P2
2022/06/17 00:01:21;;;;;;;8.32;5.65;;;18.30;99.90;;;;;;5106178;28;20502;-75
2022/06/17 00:03:49;;;;;;;11.95;6.28;;;18.30;99.90;;;;;;5115582;28;20036;-76
2022/06/17 00:06:16;;;;;;;8.82;5.15;;;18.30;99.90;;;;;;5115281;28;20130;-76
2022/06/17 00:08:46;;;;;;;9.10;5.97;;;18.20;99.90;;;;;;5097221;28;20096;-76
2022/06/17 00:11:17;;;;;;;10.60;6.55;;;18.10;99.90;;;;;;5102006;28;20449;-74
2022/06/17 00:13:44;;;;;;;6.50;5.55;;;18.20;99.90;;;;;;5094612;28;20040;-76
2022/06/17 00:16:13;;;;;;;8.10;5.60;;;18.20;99.90;;;;;;5110496;28;20487;-75
2022/06/17 00:18:42;;;;;;;8.73;5.95;;;18.10;99.90;;;;;;5094815;28;20032;-75
2022/06/17 00:21:17;;;;;;;10.02;5.53;;;18.10;99.90;;;;;;5094769;28;20040;-75
2022/06/17 00:23:44;;;;;;;11.20;7.03;;;18.10;99.90;;;;;;5076324;28;20499;-75
2022/06/17 00:26:12;;;;;;;10.18;6.85;;;18.20;99.90;;;;;;5108992;28;20444;-75
2022/06/17 00:28:40;;;;;;;9.77;6.07;;;18.30;99.90;;;;;;5114226;28;20035;-75
2022/06/17 00:31:08;;;;;;;7.93;5.70;;;18.20;99.90;;;;;;5114800;28;20069;-75
2022/06/17 00:33:35;;;;;;;9.55;5.88;;;18.20;99.90;;;;;;5114636;28;20074;-75
2022/06/17 00:36:04;;;;;;;9.18;6.13;;;18.20;99.90;;;;;;5114855;28;20051;-75
2022/06/17 00:38:36;;;;;;;11.02;8.07;;;18.20;99.90;;;;;;5089041;28;20048;-75
2022/06/17 00:41:13;;;;;;;10.50;5.80;;;18.20;99.90;;;;;;5076151;28;20518;-75
2022/06/17 00:43:44;;;;;;;9.25;5.82;;;18.20;99.90;;;;;;5094122;28;20415;-75
2022/06/17 00:46:22;;;;;;;9.80;5.20;;;18.20;99.90;;;;;;5109548;28;20048;-75
2022/06/17 00:49:01;;;;;;;6.68;5.50;;;18.30;99.90;;;;;;5076021;28;20051;-75
2022/06/17 00:51:34;;;;;;;38.83;25.15;;;18.20;99.90;;;;;;5094308;28;20044;-77
2022/06/17 00:54:07;;;;;;;17.02;10.90;;;18.30;99.90;;;;;;5104792;28;20040;-75
2022/06/17 00:56:37;;;;;;;8.68;5.22;;;18.20;99.90;;;;;;5115953;28;20562;-76
2022/06/17 00:59:09;;;;;;;8.15;5.32;;;18.20;99.90;;;;;;5105755;28;20032;-76
2022/06/17 01:01:43;;;;;;;10.90;5.22;;;18.20;99.90;;;;;;5102062;28;20036;-75
2022/06/17 01:04:12;;;;;;;7.28;5.20;;;18.20;99.90;;;;;;5107102;28;20453;-75
2022/06/17 01:06:47;;;;;;;8.43;5.25;;;18.20;99.90;;;;;;5100691;28;20048;-75
2022/06/17 01:12:12;;;;;;;8.60;5.35;;;18.10;99.90;;;;;;5065046;28;20552;-75
2022/06/17 01:14:42;;;;;;;9.65;6.03;;;18.10;99.90;;;;;;5096910;28;20182;-76
2022/06/17 01:17:11;;;;;;;7.82;6.32;;;18.10;99.90;;;;;;5114171;28;20062;-75
2022/06/17 01:19:44;;;;;;;8.80;6.05;;;18.00;99.90;;;;;;5095800;28;20131;-75
2022/06/17 01:22:36;;;;;;;7.53;6.10;;;18.00;99.90;;;;;;5095674;28;20048;-76
2022/06/17 01:25:08;;;;;;;7.68;6.70;;;18.00;99.90;;;;;;5095054;28;20050;-76
2022/06/17 01:27:39;;;;;;;9.13;6.88;;;18.00;99.90;;;;;;5096643;28;20050;-76
2022/06/17 01:30:10;;;;;;;8.20;6.15;;;18.00;99.90;;;;;;5096129;28;20047;-77
2022/06/17 01:32:42;;;;;;;9.13;6.45;;;18.00;99.90;;;;;;5095388;28;20052;-76
2022/06/17 01:35:10;;;;;;;9.63;6.40;;;18.10;99.90;;;;;;5083548;28;20052;-75
2022/06/17 01:37:38;;;;;;;6.63;5.78;;;18.00;99.90;;;;;;5109457;28;20047;-76
2022/06/17 01:40:08;;;;;;;6.82;5.22;;;18.00;99.90;;;;;;5093248;28;20384;-75
2022/06/17 01:42:38;;;;;;;10.10;5.50;;;17.90;99.90;;;;;;5109093;28;20051;-76
2022/06/17 01:45:07;;;;;;;9.75;5.57;;;17.90;99.90;;;;;;5075388;28;20041;-75
2022/06/17 01:47:35;;;;;;;7.38;5.72;;;17.80;99.90;;;;;;5094092;28;20040;-75
2022/06/17 01:50:08;;;;;;;8.10;5.50;;;17.90;99.90;;;;;;5075508;28;20407;-75
2022/06/17 01:52:41;;;;;;;8.10;5.72;;;17.80;99.90;;;;;;5075211;28;20048;-75
2022/06/17 01:55:12;;;;;;;10.65;5.65;;;17.80;99.90;;;;;;5106143;28;20046;-75
2022/06/17 01:57:44;;;;;;;10.23;5.90;;;17.70;99.90;;;;;;5065918;22;20045;-74
2022/06/17 02:00:17;;;;;;;9.23;5.35;;;17.60;99.90;;;;;;5033673;28;20144;-74
2022/06/17 02:02:51;;;;;;;6.93;5.43;;;17.60;99.90;;;;;;5049621;28;20048;-73
2022/06/17 02:05:20;;;;;;;8.07;5.13;;;17.50;99.90;;;;;;5060989;28;20137;-75
2022/06/17 02:07:53;;;;;;;8.68;5.68;;;17.40;99.90;;;;;;5079044;28;20410;-74
2022/06/17 02:10:21;;;;;;;9.50;6.07;;;17.40;99.90;;;;;;5071777;28;20048;-74
2022/06/17 02:12:51;;;;;;;7.28;5.60;;;17.40;99.90;;;;;;5071718;28;20477;-74
2022/06/17 02:15:19;;;;;;;6.70;5.30;;;17.40;99.90;;;;;;5055594;28;20052;-74
2022/06/17 02:18:10;;;;;;;12.95;5.63;;;17.40;99.90;;;;;;5052608;28;20045;-75
2022/06/17 02:20:45;;;;;;;7.00;5.85;;;17.30;99.90;;;;;;5087221;28;20136;-74
2022/06/17 02:23:14;;;;;;;8.82;6.07;;;17.30;99.90;;;;;;5065663;28;20047;-74
2022/06/17 02:25:47;;;;;;;8.88;5.78;;;17.30;99.90;;;;;;5077715;28;20029;-74
2022/06/17 02:28:16;;;;;;;11.85;5.97;;;17.30;99.90;;;;;;5077760;28;20056;-75
2022/06/17 02:30:46;;;;;;;8.98;5.60;;;17.30;99.90;;;;;;5076232;28;20052;-73
2022/06/17 02:33:15;;;;;;;7.05;6.00;;;17.20;99.90;;;;;;5052550;28;20041;-76
2022/06/17 02:35:49;;;;;;;8.15;6.05;;;17.10;99.90;;;;;;5054338;28;20037;-76
2022/06/17 02:38:22;;;;;;;8.47;6.17;;;17.00;99.90;;;;;;5052950;28;20084;-75
2022/06/17 02:40:53;;;;;;;9.23;6.30;;;16.90;99.90;;;;;;5052923;28;20140;-76
2022/06/17 02:43:25;;;;;;;7.70;6.05;;;17.00;99.90;;;;;;5068704;28;20044;-75
2022/06/17 02:46:00;;;;;;;9.88;6.55;;;17.00;99.90;;;;;;5065901;28;20045;-74
2022/06/17 02:48:32;;;;;;;10.82;6.70;;;17.00;99.90;;;;;;5051229;28;20507;-75
2022/06/17 02:51:01;;;;;;;9.02;6.47;;;17.00;99.90;;;;;;5051994;28;20068;-75
2022/06/17 02:53:34;;;;;;;8.85;6.35;;;17.10;99.90;;;;;;5055072;28;20110;-75
2022/06/17 02:56:05;;;;;;;10.48;7.05;;;17.00;99.90;;;;;;5054775;28;20045;-75
2022/06/17 02:58:44;;;;;;;9.93;7.13;;;17.00;99.90;;;;;;5057301;28;20060;-74
2022/06/17 03:01:18;;;;;;;12.27;7.25;;;16.90;99.90;;;;;;5055181;28;20562;-74
2022/06/17 03:03:48;;;;;;;10.85;7.72;;;16.90;99.90;;;;;;5088432;28;20057;-74
2022/06/17 03:06:20;;;;;;;10.13;7.55;;;16.90;99.90;;;;;;5055169;28;20412;-73
2022/06/17 03:08:52;;;;;;;9.57;7.80;;;16.90;99.90;;;;;;5064118;28;20045;-75
2022/06/17 03:11:21;;;;;;;10.88;8.38;;;16.80;99.90;;;;;;5076306;28;20044;-75
2022/06/17 03:13:51;;;;;;;11.68;8.52;;;16.90;99.90;;;;;;5075090;28;20543;-74
2022/06/17 03:16:20;;;;;;;13.73;8.07;;;16.90;99.90;;;;;;5080570;28;20065;-73
2022/06/17 03:18:49;;;;;;;12.05;8.68;;;16.90;99.90;;;;;;5100142;28;20066;-74
2022/06/17 03:21:22;;;;;;;13.25;8.60;;;16.90;99.90;;;;;;5099437;28;20041;-74
2022/06/17 03:24:01;;;;;;;12.75;8.63;;;16.90;99.90;;;;;;5077173;28;20102;-75
2022/06/17 03:26:34;;;;;;;11.57;8.63;;;17.00;99.90;;;;;;5074247;28;20048;-73
2022/06/17 03:29:06;;;;;;;12.07;8.25;;;17.00;99.90;;;;;;5074324;28;20052;-74
2022/06/17 03:31:39;;;;;;;10.93;8.07;;;17.00;99.90;;;;;;5080442;28;20048;-74
2022/06/17 03:34:12;;;;;;;11.02;8.18;;;17.00;99.90;;;;;;5078721;28;20048;-75
2022/06/17 03:36:47;;;;;;;12.52;8.00;;;17.00;99.90;;;;;;5068469;28;20080;-75
2022/06/17 03:39:20;;;;;;;14.05;8.43;;;17.00;99.90;;;;;;5054595;28;20468;-74
2022/06/17 03:41:53;;;;;;;11.00;8.05;;;17.10;99.90;;;;;;5054479;28;20045;-74
2022/06/17 03:44:24;;;;;;;11.40;8.27;;;17.20;99.90;;;;;;5054347;28;20045;-76
2022/06/17 03:46:59;;;;;;;11.25;7.82;;;17.30;99.90;;;;;;5067464;28;20056;-75
2022/06/17 03:49:35;;;;;;;9.85;8.15;;;17.40;99.90;;;;;;5074789;28;20047;-75
2022/06/17 03:52:12;;;;;;;12.70;7.88;;;17.60;99.90;;;;;;5075371;28;20044;-77
2022/06/17 03:54:40;;;;;;;11.20;8.75;;;18.00;99.90;;;;;;5052368;28;20107;-75
2022/06/17 03:57:11;;;;;;;11.95;7.10;;;18.60;99.90;;;;;;5035246;28;20050;-74
2022/06/17 03:59:43;;;;;;;11.50;7.22;;;19.60;99.90;;;;;;5036344;28;20534;-74
2022/06/17 04:02:14;;;;;;;9.73;7.10;;;20.50;99.90;;;;;;5041210;28;20130;-73
2022/06/17 04:04:45;;;;;;;11.55;6.88;;;21.30;99.90;;;;;;5050482;28;20140;-74
2022/06/17 04:07:14;;;;;;;11.00;7.10;;;22.10;99.90;;;;;;5062913;28;20044;-75
2022/06/17 04:09:45;;;;;;;13.50;7.28;;;22.10;1.00;;;;;;5062731;28;20098;-74
2022/06/17 04:12:25;;;;;;;10.95;6.65;;;22.30;1.00;;;;;;5065865;28;20123;-74
2022/06/17 04:15:21;;;;;;;10.32;6.95;;;22.40;99.90;;;;;;5074227;28;20064;-74
2022/06/17 04:17:50;;;;;;;;;;;22.90;1.00;;;;;;5074094;28;20048;-75
2022/06/17 04:20:36;;;;;;;12.43;6.28;;;23.20;1.00;;;;;;5073364;28;19952;-75
2022/06/17 04:23:08;;;;;;;13.15;6.72;;;23.50;24.40;;;;;;5073273;28;20504;-75
2022/06/17 04:26:02;;;;;;;15.68;6.35;;;23.80;1.00;;;;;;5073428;28;20710;-75
2022/06/17 04:28:34;;;;;;;16.15;6.57;;;24.50;1.00;;;;;;5074322;28;20039;-74
2022/06/17 04:31:06;;;;;;;15.00;7.05;;;24.80;1.00;;;;;;5077062;28;20052;-74
2022/06/17 04:33:40;;;;;;;10.23;6.72;;;25.30;1.00;;;;;;5074001;28;20499;-73
2022/06/17 04:36:13;;;;;;;12.50;7.00;;;25.50;1.00;;;;;;5072374;28;20049;-74
2022/06/17 04:38:50;;;;;;;14.73;8.02;;;24.60;99.90;;;;;;5055142;28;20045;-75
2022/06/17 04:41:43;;;;;;;12.57;7.60;;;24.10;1.00;;;;;;5053490;28;20063;-74
2022/06/17 04:44:31;;;;;;;15.45;7.35;;;23.30;1.00;;;;;;5055240;28;20538;-74
2022/06/17 04:47:05;;;;;;;17.17;9.07;;;22.50;99.90;;;;;;5058728;28;20063;-75
2022/06/17 04:49:56;;;;;;;16.25;8.40;;;22.20;99.90;;;;;;5053991;28;20435;-74
2022/06/17 04:52:30;;;;;;;14.10;7.55;;;22.90;39.60;;;;;;5053151;28;20049;-75
2022/06/17 04:55:34;;;;;;;13.85;8.07;;;24.00;1.00;;;;;;5045887;28;20433;-75
2022/06/17 04:58:13;;;;;;;16.15;8.32;;;25.10;1.00;;;;;;5052671;28;20123;-75
2022/06/17 05:00:48;;;;;;;16.75;8.27;;;25.60;1.00;;;;;;5052808;28;20099;-74
2022/06/17 05:03:18;;;;;;;11.45;8.45;;;25.20;99.90;;;;;;5058703;28;20066;-75
2022/06/17 05:05:51;;;;;;;13.10;9.60;;;25.00;99.90;;;;;;5061267;28;20056;-74
2022/06/17 05:08:23;;;;;;;16.38;9.27;;;24.90;99.90;;;;;;5054554;28;20534;-75
2022/06/17 05:10:55;;;;;;;18.67;10.38;;;24.70;99.90;;;;;;5072096;28;20494;-75
2022/06/17 05:13:35;;;;;;;19.17;9.35;;;24.70;99.90;;;;;;5064191;28;20457;-75
2022/06/17 05:16:05;;;;;;;16.48;10.25;;;25.10;99.90;;;;;;5056583;28;20453;-74
2022/06/17 05:18:33;;;;;;;14.65;10.02;;;25.10;99.90;;;;;;5056958;28;20517;-75
2022/06/17 05:21:18;;;;;;;12.85;9.50;;;25.10;99.90;;;;;;5071069;28;20581;-73
2022/06/17 05:23:47;;;;;;;20.05;10.77;;;25.70;99.90;;;;;;5071688;28;20056;-75
2022/06/17 05:26:15;;;;;;;19.15;11.27;;;26.10;99.90;;;;;;5068119;28;20052;-74
2022/06/17 05:28:44;;;;;;;15.35;9.38;;;26.80;1.00;;;;;;5053035;28;20037;-75
2022/06/17 05:31:17;;;;;;;12.75;9.25;;;26.90;1.00;;;;;;5052313;28;20048;-75
2022/06/17 05:33:50;;;;;;;16.42;9.43;;;26.40;99.90;;;;;;5051445;28;20492;-74
2022/06/17 05:36:18;;;;;;;13.40;10.00;;;26.60;99.90;;;;;;5052134;28;20052;-74
2022/06/17 05:38:48;;;;;;;21.58;12.93;;;27.00;1.00;;;;;;5052268;28;20060;-75
2022/06/17 05:41:19;;;;;;;24.42;12.63;;;27.30;1.00;;;;;;5051759;28;20045;-74
2022/06/17 05:43:48;;;;;;;19.27;10.02;;;27.50;1.00;;;;;;5051564;28;20055;-74
2022/06/17 05:46:30;;;;;;;20.52;10.40;;;27.40;1.00;;;;;;5033022;28;20049;-75
2022/06/17 05:49:17;;;;;;;16.08;10.25;;;27.80;1.00;;;;;;5002873;28;20049;-75
2022/06/17 05:51:59;;;;;;;21.80;10.90;;;28.00;1.00;;;;;;5033006;28;20045;-76
2022/06/17 05:55:05;;;;;;;16.55;9.80;;;28.10;1.00;;;;;;5029124;28;20053;-75
2022/06/17 05:57:34;;;;;;;13.52;9.63;;;28.10;1.00;;;;;;5035445;28;20140;-76
2022/06/17 06:00:03;;;;;;;12.95;9.77;;;27.80;1.00;;;;;;5071314;28;20045;-73
2022/06/17 06:02:39;;;;;;;16.98;9.05;;;27.80;1.00;;;;;;5062097;28;20516;-75
2022/06/17 06:05:14;;;;;;;13.98;9.07;;;27.80;1.00;;;;;;5051646;28;20041;-74
2022/06/17 06:07:42;;;;;;;11.18;8.68;;;27.70;1.00;;;;;;5052107;28;20045;-75
2022/06/17 06:10:10;;;;;;;15.52;9.65;;;27.00;1.00;;;;;;5051639;28;20056;-74
2022/06/17 06:13:00;;;;;;;16.75;10.95;;;27.00;99.90;;;;;;5052570;28;20041;-75
2022/06/17 06:15:38;;;;;;;16.52;9.20;;;27.20;99.90;;;;;;5051789;28;20495;-74
2022/06/17 06:18:22;;;;;;;;;;;27.20;99.90;;;;;;5051631;28;20067;-75
2022/06/17 06:20:50;;;;;;;17.13;9.13;;;27.00;1.00;;;;;;5078253;28;20434;-75
2022/06/17 06:23:17;;;;;;;15.52;8.75;;;26.90;1.00;;;;;;5051552;28;20102;-75
2022/06/17 06:25:45;;;;;;;18.80;9.88;;;27.20;1.00;;;;;;5051658;28;20048;-76
2022/06/17 06:28:14;;;;;;;13.40;8.73;;;27.20;1.00;;;;;;5055739;28;20045;-75
2022/06/17 06:30:51;;;;;;;9.15;7.03;;;27.20;1.00;;;;;;5056193;28;20044;-75
2022/06/17 06:33:18;;;;;;;;;;;27.30;1.00;;;;;;5056030;28;20470;-74
2022/06/17 06:35:47;;;;;;;10.13;6.78;;;27.50;11.20;;;;;;5089730;28;19966;-74
2022/06/17 06:38:14;;;;;;;9.82;6.50;;;27.90;1.00;;;;;;5056728;28;20119;-75
2022/06/17 06:40:42;;;;;;;13.85;6.97;;;27.60;1.00;;;;;;5055409;28;20144;-74
2022/06/17 06:43:15;;;;;;;21.75;7.60;;;27.40;1.00;;;;;;5054850;28;20049;-74
2022/06/17 06:46:06;;;;;;;18.23;8.88;;;27.80;1.00;;;;;;5056542;28;20631;-75
2022/06/17 06:48:35;;;;;;;13.90;7.35;;;28.00;1.00;;;;;;5055224;28;20045;-75
2022/06/17 06:51:03;;;;;;;17.17;7.70;;;28.10;1.00;;;;;;5055350;28;20048;-74
2022/06/17 06:53:31;;;;;;;15.73;9.05;;;28.30;99.90;;;;;;5055294;28;20045;-74
2022/06/17 06:55:58;;;;;;;10.43;7.65;;;28.10;99.90;;;;;;5055524;28;20049;-75
2022/06/17 06:58:26;;;;;;;12.13;5.35;;;28.10;99.90;;;;;;5056088;28;20056;-76
2022/06/17 07:00:57;;;;;;;12.52;7.25;;;27.70;1.00;;;;;;5058789;28;20059;-75
2022/06/17 07:03:29;;;;;;;11.13;6.13;;;27.60;1.00;;;;;;5059675;28;20048;-76
2022/06/17 07:06:01;;;;;;;10.57;5.18;;;27.70;99.90;;;;;;5066069;28;20500;-75
2022/06/17 07:08:34;;;;;;;16.48;5.82;;;27.50;99.90;;;;;;5064162;28;20111;-75
2022/06/17 07:11:02;;;;;;;11.38;6.30;;;27.50;99.90;;;;;;5064168;28;20036;-75
2022/06/17 07:13:30;;;;;;;14.48;5.20;;;27.60;99.90;;;;;;5067000;28;20048;-76
2022/06/17 07:15:58;;;;;;;16.85;6.72;;;27.50;1.00;;;;;;5069409;28;20040;-75
2022/06/17 07:18:29;;;;;;;18.58;7.40;;;27.80;99.90;;;;;;5077531;28;20044;-75
2022/06/17 07:20:59;;;;;;;10.57;5.45;;;28.20;1.00;;;;;;5086582;28;20049;-75
2022/06/17 07:23:29;;;;;;;12.07;6.75;;;28.10;52.40;;;;;;5094944;28;20041;-75
2022/06/17 07:25:58;;;;;;;19.70;6.35;;;28.40;99.90;;;;;;5086287;28;20372;-78
2022/06/17 07:28:26;;;;;;;12.02;6.82;;;28.60;1.00;;;;;;5075986;28;20048;-75
2022/06/17 07:30:55;;;;;;;15.38;8.82;;;28.60;99.90;;;;;;5075494;28;20044;-75
2022/06/17 07:33:24;;;;;;;18.63;9.07;;;28.40;1.00;;;;;;5075675;28;20057;-74
2022/06/17 07:35:55;;;;;;;25.27;10.13;;;28.20;1.00;;;;;;5075799;28;20048;-75
2022/06/17 07:41:14;;;;;;;16.88;8.50;;;28.20;1.00;;;;;;5049482;28;20496;-76
2022/06/17 07:43:42;;;;;;;10.75;6.53;;;28.60;99.90;;;;;;5075004;28;20041;-77
2022/06/17 07:46:10;;;;;;;12.20;6.53;;;28.60;60.90;;;;;;5075141;28;20499;-76
2022/06/17 07:48:38;;;;;;;13.30;6.70;;;28.40;1.00;;;;;;5075860;28;20098;-75
2022/06/17 07:51:08;;;;;;;9.73;6.60;;;28.30;1.00;;;;;;5075455;28;20036;-75
2022/06/17 07:53:36;;;;;;;13.88;7.88;;;28.20;1.00;;;;;;5075020;28;20442;-75
2022/06/17 07:56:04;;;;;;;9.23;5.88;;;27.90;99.90;;;;;;5075464;28;20040;-75
2022/06/17 07:58:32;;;;;;;10.07;5.93;;;27.40;1.00;;;;;;5031652;22;20050;-77
2022/06/17 08:00:59;;;;;;;11.55;5.35;;;27.80;93.30;;;;;;5010715;28;20042;-77
2022/06/17 08:03:26;;;;;;;12.93;5.95;;;28.20;1.00;;;;;;5013546;28;20053;-78
2022/06/17 08:05:56;;;;;;;15.82;8.80;;;28.50;1.00;;;;;;5015228;28;20046;-77
2022/06/17 08:08:26;;;;;;;11.65;6.00;;;28.80;49.60;;;;;;5014070;28;20057;-78
2022/06/17 08:10:57;;;;;;;9.75;6.82;;;28.80;1.00;;;;;;5015191;28;20129;-77
2022/06/17 08:13:25;;;;;;;10.45;7.13;;;28.70;1.00;;;;;;5014232;28;20054;-77
2022/06/17 08:15:55;;;;;;;13.20;6.75;;;28.70;1.00;;;;;;5001249;28;20038;-77
2022/06/17 08:18:22;;;;;;;22.60;10.43;;;28.50;1.00;;;;;;4998519;28;20050;-76
2022/06/17 08:20:50;;;;;;;23.35;11.38;;;28.20;1.00;;;;;;5005442;28;20444;-78
2022/06/17 08:23:19;;;;;;;14.27;9.43;;;28.00;1.00;;;;;;5010125;28;20045;-77
2022/06/17 08:25:48;;;;;;;18.88;10.50;;;28.40;99.90;;;;;;5008791;28;20111;-77
2022/06/17 08:28:16;;;;;;;18.00;9.43;;;28.40;1.00;;;;;;5014823;28;20538;-77
2022/06/17 08:30:46;;;;;;;12.02;8.02;;;28.80;1.00;;;;;;5013334;28;20046;-78
2022/06/17 08:33:14;;;;;;;12.32;7.90;;;29.00;1.00;;;;;;5013657;28;20132;-76
2022/06/17 08:35:46;;;;;;;11.13;7.50;;;29.40;99.90;;;;;;5014265;28;20495;-77
2022/06/17 08:38:17;;;;;;;9.40;5.20;;;29.90;1.00;;;;;;5014632;28;20041;-77
2022/06/17 08:40:56;;;;;;;14.00;8.07;;;29.80;1.00;;;;;;5015400;28;20042;-75
2022/06/17 08:43:45;;;;;;;9.88;5.35;;;29.60;99.90;;;;;;5014129;28;20042;-77
2022/06/17 08:46:29;;;;;;;9.45;5.70;;;29.80;99.90;;;;;;5014647;28;20409;-76
2022/06/17 08:49:16;;;;;;;10.23;6.05;;;30.40;1.00;;;;;;5014434;28;20120;-77
2022/06/17 08:51:56;;;;;;;8.07;5.90;;;30.40;1.00;;;;;;5014964;28;20100;-76
2022/06/17 08:54:45;;;;;;;8.65;5.60;;;30.00;1.00;;;;;;5014346;28;20056;-76
2022/06/17 08:57:19;;;;;;;7.35;4.90;;;29.60;1.00;;;;;;5013957;28;20061;-76
2022/06/17 09:00:07;;;;;;;10.75;5.40;;;29.40;1.00;;;;;;5013720;28;20050;-75
2022/06/17 09:02:59;;;;;;;11.27;5.03;;;29.70;1.00;;;;;;5015955;28;20042;-76
2022/06/17 09:05:39;;;;;;;11.35;5.10;;;29.80;1.00;;;;;;5015674;28;20050;-76
2022/06/17 09:08:32;;;;;;;9.00;4.95;;;29.90;99.90;;;;;;5015344;28;20038;-76
2022/06/17 09:11:13;;;;;;;16.25;5.65;;;29.40;1.00;;;;;;5002676;28;20041;-77
2022/06/17 09:13:51;;;;;;;12.43;6.22;;;29.40;1.00;;;;;;5000695;28;20053;-77
2022/06/17 09:16:25;;;;;;;12.27;5.72;;;29.60;99.90;;;;;;5010237;28;20100;-76
2022/06/17 09:18:59;;;;;;;10.55;6.60;;;29.70;99.90;;;;;;5008986;28;20047;-77
2022/06/17 09:21:32;;;;;;;11.73;6.93;;;29.60;1.00;;;;;;5013963;28;20041;-76
2022/06/17 09:24:05;;;;;;;9.27;6.97;;;29.40;99.90;;;;;;5013594;28;20409;-76
2022/06/17 09:26:39;;;;;;;9.60;5.90;;;29.40;1.00;;;;;;5010943;28;20134;-76
2022/06/17 09:29:16;;;;;;;7.38;3.80;;;29.40;1.00;;;;;;5012736;28;20103;-76
2022/06/17 09:31:49;;;;;;;13.25;4.88;;;29.20;1.00;;;;;;5026252;28;20069;-77
2022/06/17 09:34:21;;;;;;;8.30;4.20;;;29.10;99.90;;;;;;5024364;28;20072;-76
2022/06/17 09:36:51;;;;;;;10.00;4.45;;;29.20;99.90;;;;;;5016328;28;20100;-78
2022/06/17 09:39:24;;;;;;;16.77;6.00;;;29.40;1.00;;;;;;5014441;28;20393;-77
2022/06/17 09:41:54;;;;;;;6.63;4.47;;;29.60;1.00;;;;;;5014118;28;20050;-77
2022/06/17 09:44:29;;;;;;;12.35;6.28;;;29.70;99.90;;;;;;5013373;28;20042;-76
2022/06/17 09:47:06;;;;;;;8.52;5.15;;;30.00;99.90;;;;;;5014048;28;20457;-78
2022/06/17 09:49:39;;;;;;;10.48;7.25;;;30.10;28.90;;;;;;5015136;28;20085;-78
2022/06/17 09:52:11;;;;;;;7.85;4.80;;;29.60;1.00;;;;;;5012327;28;20145;-77
2022/06/17 09:54:44;;;;;;;8.02;3.60;;;29.40;1.00;;;;;;5013202;28;20045;-77
2022/06/17 09:57:18;;;;;;;11.00;4.60;;;29.00;1.00;;;;;;5012073;28;20093;-76
2022/06/17 09:59:51;;;;;;;9.15;3.30;;;28.70;1.00;;;;;;5013136;28;20042;-77
2022/06/17 10:02:28;;;;;;;8.65;4.43;;;28.90;99.90;;;;;;5017242;28;20120;-77
2022/06/17 10:04:56;;;;;;;6.38;3.47;;;29.20;1.00;;;;;;5017810;28;20034;-78
2022/06/17 10:07:31;;;;;;;5.90;3.30;;;29.70;99.90;;;;;;5009349;28;20038;-77
2022/06/17 10:10:11;;;;;;;11.67;4.37;;;29.80;1.00;;;;;;4999145;28;20066;-77
2022/06/17 10:12:53;;;;;;;11.07;5.00;;;30.00;1.00;;;;;;5002485;28;20042;-77
2022/06/17 10:15:38;;;;;;;8.70;4.30;;;30.00;1.00;;;;;;5002023;28;20453;-78
2022/06/17 10:18:31;;;;;;;4.28;2.78;;;29.80;1.00;;;;;;5001078;28;20049;-77
2022/06/17 10:21:11;;;;;;;8.57;4.00;;;29.60;1.00;;;;;;4994302;28;20105;-78
2022/06/17 10:23:50;;;;;;;9.00;4.72;;;29.40;1.00;;;;;;4998589;28;20033;-77
2022/06/17 10:26:26;;;;;;;7.38;3.60;;;29.60;1.00;;;;;;5011223;28;20146;-77
2022/06/17 10:29:07;;;;;;;8.45;5.10;;;29.80;99.90;;;;;;4996537;28;20478;-77
2022/06/17 10:31:39;;;;;;;5.05;4.00;;;30.00;1.00;;;;;;4997289;28;20035;-77
2022/06/17 10:34:12;;;;;;;8.15;6.63;;;30.10;1.00;;;;;;4995907;28;20054;-76
2022/06/17 10:36:40;;;;;;;5.72;3.53;;;30.10;23.70;;;;;;4993170;28;20054;-76
2022/06/17 10:39:10;;;;;;;7.47;4.80;;;29.80;99.90;;;;;;4978973;28;20097;-77
2022/06/17 10:41:38;;;;;;;10.02;5.82;;;29.50;99.90;;;;;;5008281;28;20053;-77
2022/06/17 10:44:09;;;;;;;9.25;4.68;;;29.60;1.00;;;;;;5001685;28;20046;-77
2022/06/17 10:46:41;;;;;;;5.60;3.58;;;29.60;1.00;;;;;;4986532;28;20042;-77
2022/06/17 10:49:17;;;;;;;6.40;3.63;;;29.60;17.70;;;;;;4997882;28;20093;-76
2022/06/17 10:51:47;;;;;;;9.23;3.53;;;29.40;1.00;;;;;;4996998;28;20039;-77
2022/06/17 10:54:20;;;;;;;6.45;4.03;;;29.50;1.00;;;;;;4994595;28;20050;-77
2022/06/17 10:56:55;;;;;;;7.88;4.28;;;29.70;1.00;;;;;;4995194;28;20043;-77
2022/06/17 10:59:33;;;;;;;4.68;3.55;;;29.80;1.00;;;;;;4976047;28;20110;-77
2022/06/17 11:02:03;;;;;;;5.47;2.78;;;29.80;99.90;;;;;;4979621;28;20047;-77
2022/06/17 11:04:33;;;;;;;4.30;2.90;;;28.90;1.00;;;;;;4994508;28;20050;-77
2022/06/17 11:07:07;;;;;;;4.97;2.90;;;28.70;1.00;;;;;;4997117;28;20053;-77
2022/06/17 11:09:39;;;;;;;4.80;2.50;;;29.00;1.00;;;;;;4978562;28;20051;-77
2022/06/17 11:12:19;;;;;;;6.60;2.97;;;29.10;99.90;;;;;;4981345;28;20042;-78
2022/06/17 11:14:53;;;;;;;5.97;3.25;;;29.20;1.00;;;;;;5000565;28;20129;-77
2022/06/17 11:17:33;;;;;;;7.88;4.47;;;29.40;1.00;;;;;;5026193;28;20046;-75
2022/06/17 11:20:06;;;;;;;7.28;3.67;;;29.70;1.00;;;;;;5008664;28;20038;-77
2022/06/17 11:22:36;;;;;;;18.02;4.13;;;30.00;1.00;;;;;;5000315;28;20081;-76
2022/06/17 11:25:07;;;;;;;5.45;3.20;;;30.10;99.90;;;;;;4998528;28;20125;-78
2022/06/17 11:27:39;;;;;;;8.52;3.80;;;30.30;32.10;;;;;;4985112;28;20050;-78
2022/06/17 11:30:30;;;;;;;7.60;3.92;;;30.40;99.90;;;;;;4979854;28;20095;-78
2022/06/17 11:33:00;;;;;;;4.78;3.20;;;30.50;99.90;;;;;;4983781;28;20050;-77
2022/06/17 11:35:38;;;;;;;8.40;3.22;;;30.50;99.90;;;;;;4998184;28;20066;-78
2022/06/17 11:38:11;;;;;;;5.68;3.20;;;30.50;93.80;;;;;;4997213;28;20121;-77
2022/06/17 11:40:49;;;;;;;14.38;6.30;;;30.90;12.30;;;;;;4997245;28;20129;-77
2022/06/17 11:43:28;;;;;;;8.50;4.28;;;31.00;1.00;;;;;;5012283;28;20493;-77
2022/06/17 11:45:56;;;;;;;5.80;3.65;;;30.70;99.90;;;;;;5011690;28;20042;-80
2022/06/17 11:48:25;;;;;;;6.57;3.95;;;30.70;99.90;;;;;;5015117;28;20057;-80
2022/06/17 11:51:06;;;;;;;8.57;4.40;;;30.60;99.90;;;;;;5013224;28;20050;-80
2022/06/17 11:53:41;;;;;;;12.32;4.30;;;30.70;1.00;;;;;;4995860;28;20074;-79
2022/06/17 11:56:10;;;;;;;6.57;3.92;;;30.80;1.00;;;;;;5001358;28;20058;-81
2022/06/17 11:58:54;;;;;;;8.48;4.32;;;30.80;1.00;;;;;;4989046;28;20054;-80
2022/06/17 12:01:22;;;;;;;5.15;3.50;;;30.70;99.90;;;;;;4984957;28;20550;-80
2022/06/17 12:03:50;;;;;;;9.50;4.40;;;30.50;1.00;;;;;;4988619;28;20042;-79
2022/06/17 12:06:24;;;;;;;5.47;4.03;;;30.30;99.90;;;;;;4998842;28;20054;-80
2022/06/17 12:08:57;;;;;;;5.03;2.95;;;30.30;99.90;;;;;;4996969;28;20141;-79
2022/06/17 12:11:33;;;;;;;7.85;3.78;;;29.80;99.90;;;;;;4997283;28;20046;-80
2022/06/17 12:14:01;;;;;;;;;;;29.80;99.90;;;;;;4998551;28;20050;-79
2022/06/17 12:16:38;;;;;;;5.30;3.67;;;29.70;99.90;;;;;;4996236;28;19922;-79
2022/06/17 12:19:13;;;;;;;6.18;3.33;;;29.60;99.90;;;;;;4995668;28;20104;-78
2022/06/17 12:21:52;;;;;;;6.53;3.75;;;29.60;1.00;;;;;;5007454;28;20092;-78
2022/06/17 12:24:27;;;;;;;7.80;5.45;;;29.60;99.90;;;;;;5014725;28;20117;-77
2022/06/17 12:27:00;;;;;;;5.68;3.67;;;29.40;1.00;;;;;;5015348;28;20078;-78
2022/06/17 12:29:36;;;;;;;10.50;4.03;;;29.40;1.00;;;;;;5016068;28;20045;-79
2022/06/17 12:32:06;;;;;;;;;;;29.70;1.00;;;;;;5016918;28;20030;-79
2022/06/17 12:34:38;;;;;;;13.88;4.75;;;29.80;1.00;;;;;;5015601;28;19925;-80
2022/06/17 12:37:10;;;;;;;6.30;3.78;;;29.90;1.00;;;;;;5018314;28;20042;-79
2022/06/17 12:39:46;;;;;;;15.70;7.50;;;30.10;1.00;;;;;;5018902;28;20053;-80
2022/06/17 12:42:22;;;;;;;6.07;3.10;;;30.50;1.00;;;;;;5019493;28;20049;-80
2022/06/17 12:45:03;;;;;;;6.55;3.92;;;30.50;1.00;;;;;;5018941;28;20049;-80
2022/06/17 12:47:40;;;;;;;7.30;3.38;;;30.50;1.00;;;;;;5017325;28;20081;-81
2022/06/17 12:53:17;;;;;;;5.28;3.03;;;29.30;1.00;;;;;;5020168;28;20050;-80
2022/06/17 12:56:09;;;;;;;7.50;3.40;;;28.90;1.00;;;;;;5019038;28;20045;-80
2022/06/17 12:58:54;;;;;;;16.17;5.72;;;28.90;1.00;;;;;;5017824;28;20053;-79
2022/06/17 13:01:30;;;;;;;11.85;6.40;;;29.10;1.00;;;;;;5018488;28;20069;-80
2022/06/17 13:04:20;;;;;;;11.10;4.95;;;29.20;99.90;;;;;;5018364;28;20073;-80
2022/06/17 13:07:03;;;;;;;8.52;3.55;;;29.20;99.90;;;;;;5018374;28;20060;-80
2022/06/17 13:09:39;;;;;;;8.85;3.45;;;29.10;1.00;;;;;;5016735;28;20046;-79
2022/06/17 13:12:15;;;;;;;6.30;4.30;;;29.10;1.00;;;;;;5018454;28;20117;-80
2022/06/17 13:14:50;;;;;;;6.75;4.65;;;28.50;1.00;;;;;;5018089;28;20064;-78
2022/06/17 13:17:26;;;;;;;4.25;3.03;;;28.40;1.00;;;;;;5017912;28;20115;-80
2022/06/17 13:19:57;;;;;;;7.63;3.50;;;27.80;1.00;;;;;;5017544;28;20046;-79
2022/06/17 13:22:35;;;;;;;6.03;3.25;;;27.30;1.00;;;;;;5017064;28;20088;-77
2022/06/17 13:25:12;;;;;;;7.28;4.25;;;27.10;99.90;;;;;;5018252;28;20409;-80
2022/06/17 13:27:46;;;;;;;8.15;4.18;;;27.00;1.00;;;;;;5018083;28;20057;-80